createdAt,value
2023-05-16T03:25:09.145Z,9.32
2023-05-16T03:28:13.348Z,9.46
2023-05-16T03:56:15.081Z,10.44
2023-05-16T04:10:40.032Z,10.76
2023-05-16T04:41:37.376Z,10.99
2023-05-16T04:44:40.056Z,11.12
2023-05-16T04:47:42.947Z,11.26
2023-05-16T04:50:49.489Z,11.30
2023-05-16T04:53:54.278Z,11.38
2023-05-16T05:16:38.728Z,11.13
2023-05-16T05:31:17.962Z,10.99
2023-05-16T05:34:21.139Z,10.99
2023-05-16T05:37:23.696Z,10.99
2023-05-16T05:40:26.376Z,10.96
2023-05-16T05:43:29.234Z,11.01
2023-05-16T05:46:34.599Z,11.09
2023-05-16T05:49:37.118Z,11.19
2023-05-16T05:52:39.848Z,11.15
2023-05-16T05:55:42.670Z,11.01
2023-05-16T05:58:45.913Z,10.89
2023-05-16T06:01:52.798Z,10.77
2023-05-16T06:11:29.800Z,10.52
2023-05-16T06:21:35.436Z,10.49
2023-05-16T06:24:40.923Z,10.49
2023-05-16T06:27:43.770Z,10.49
2023-05-16T06:30:47.863Z,10.60
2023-05-16T06:33:54.956Z,10.59
2023-05-16T06:36:59.731Z,10.68
2023-05-16T06:40:02.296Z,10.64
2023-05-16T06:43:04.835Z,10.66
2023-05-16T06:46:07.397Z,10.61
2023-05-16T06:49:09.921Z,10.62
2023-05-16T06:52:13.786Z,10.56
2023-05-16T06:55:16.835Z,10.50
2023-05-16T06:58:19.440Z,10.51
2023-05-16T07:01:22.005Z,10.58
2023-05-16T07:04:24.555Z,10.59
2023-05-16T07:07:28.597Z,10.63
2023-05-16T07:10:31.199Z,10.71
2023-05-16T07:13:35.831Z,10.79
2023-05-16T07:16:38.913Z,10.81
2023-05-16T07:19:41.549Z,10.82
2023-05-16T07:22:45.478Z,10.58
2023-05-16T07:25:48.067Z,10.68
2023-05-16T07:28:50.782Z,10.87
2023-05-16T07:31:53.313Z,10.88
2023-05-16T07:34:55.826Z,10.97
2023-05-16T07:37:59.691Z,10.96
2023-05-16T07:41:02.469Z,10.95
2023-05-16T07:44:05.049Z,10.98
2023-05-16T07:47:07.702Z,11.15
2023-05-16T07:50:11.676Z,11.16
2023-05-16T07:53:15.519Z,11.23
2023-05-16T07:56:18.398Z,11.27
2023-05-16T07:59:21.097Z,11.29
2023-05-16T08:02:24.752Z,11.30
2023-05-16T08:05:27.578Z,11.36
2023-05-16T08:08:31.672Z,11.34
2023-05-16T08:11:34.260Z,11.24
2023-05-16T08:14:37.062Z,11.21
2023-05-16T08:17:39.939Z,11.10
2023-05-16T08:20:42.753Z,11.28
2023-05-16T08:23:46.677Z,11.26
2023-05-16T08:26:49.177Z,11.01
2023-05-16T08:29:51.672Z,10.78
2023-05-16T08:32:54.329Z,10.96
2023-05-16T08:35:57.012Z,11.02
2023-05-16T08:39:00.848Z,10.81
2023-05-16T08:42:05.248Z,10.98
2023-05-16T08:45:09.042Z,10.80
2023-05-16T08:48:12.506Z,10.60
2023-05-16T08:51:18.338Z,10.66
2023-05-16T08:54:22.762Z,10.88
2023-05-16T08:57:25.810Z,10.91
2023-05-16T09:00:29.024Z,10.91
2023-05-16T09:03:31.987Z,11.10
2023-05-16T09:06:34.563Z,11.20
2023-05-16T09:09:38.877Z,11.33
2023-05-16T09:12:42.382Z,11.09
2023-05-16T09:15:45.604Z,11.12
2023-05-16T09:18:55.514Z,10.99
2023-05-16T09:22:00.475Z,10.94
2023-05-16T09:25:06.969Z,10.83
2023-05-16T09:28:12.092Z,10.87
2023-05-16T09:31:22.550Z,10.84
2023-05-16T09:34:25.069Z,10.91
2023-05-16T09:37:27.563Z,10.93
2023-05-16T09:40:31.486Z,10.85
2023-05-16T09:43:35.627Z,10.78
2023-05-16T09:46:39.822Z,10.86
2023-05-16T09:49:42.424Z,10.92
2023-05-16T09:52:45.340Z,10.97
2023-05-16T09:55:49.201Z,10.81
2023-05-16T09:58:53.158Z,10.81
2023-05-16T10:01:55.904Z,10.97
2023-05-16T10:04:58.557Z,11.10
2023-05-16T10:08:03.804Z,11.30
2023-05-16T10:11:07.974Z,11.50
2023-05-16T10:14:11.765Z,11.60
2023-05-16T10:17:17.066Z,11.66
2023-05-16T10:20:21.463Z,11.66
2023-05-16T10:23:27.050Z,11.58
2023-05-16T10:26:31.713Z,11.49
2023-05-16T10:29:46.477Z,11.41
2023-05-16T10:32:57.580Z,11.31
2023-05-16T10:36:00.363Z,11.45
2023-05-16T10:39:04.221Z,11.43
2023-05-16T10:42:09.025Z,11.79
2023-05-16T10:45:18.343Z,11.79
2023-05-16T10:48:30.390Z,11.69
2023-05-16T10:51:37.656Z,11.69
2023-05-16T10:54:42.189Z,11.88
2023-05-16T10:57:46.158Z,12.32
2023-05-16T11:00:49.960Z,12.30
2023-05-16T11:04:10.065Z,13.05
2023-05-16T11:07:13.046Z,13.13
2023-05-16T11:10:17.425Z,12.93
2023-05-16T11:13:25.653Z,12.57
2023-05-16T11:16:29.323Z,12.91
2023-05-16T11:19:35.072Z,12.90
2023-05-16T11:22:41.389Z,12.46
2023-05-16T11:25:45.818Z,12.40
2023-05-16T11:28:51.852Z,12.31
2023-05-16T11:31:54.463Z,12.48
2023-05-16T11:34:57.402Z,12.62
2023-05-16T11:38:00.192Z,12.66
2023-05-16T11:41:06.803Z,12.46
2023-05-16T11:44:12.589Z,12.27
2023-05-16T11:47:15.643Z,12.51
2023-05-16T11:50:19.692Z,12.37
2023-05-16T11:53:23.386Z,12.67
2023-05-16T11:56:26.346Z,13.46
2023-05-16T11:59:31.146Z,13.92
2023-05-16T12:02:34.318Z,14.23
2023-05-16T12:05:37.117Z,13.90
2023-05-16T12:08:39.781Z,14.54
2023-05-16T12:11:44.017Z,15.29
2023-05-16T12:14:48.191Z,14.79
2023-05-16T12:17:52.128Z,14.58
2023-05-16T12:20:54.749Z,14.22
2023-05-16T12:23:58.518Z,14.07
2023-05-16T12:27:01.032Z,13.72
2023-05-16T12:30:05.368Z,13.40
2023-05-16T12:33:10.503Z,13.17
2023-05-16T12:36:15.495Z,13.13
2023-05-16T12:39:18.238Z,13.08
2023-05-16T12:42:20.957Z,13.59
2023-05-16T12:45:25.328Z,14.30
2023-05-16T12:48:34.076Z,14.86
2023-05-16T12:51:36.684Z,14.81
2023-05-16T12:54:39.517Z,14.88
2023-05-16T12:57:43.372Z,14.07
2023-05-16T13:00:47.208Z,13.73
2023-05-16T13:03:49.811Z,14.10
2023-05-16T13:09:58.588Z,16.06
2023-05-16T13:13:01.130Z,17.91
2023-05-16T13:16:05.280Z,17.41
2023-05-16T13:19:07.987Z,16.69
2023-05-16T13:22:10.728Z,16.26
2023-05-16T13:25:13.379Z,16.38
2023-05-16T13:28:15.894Z,16.18
2023-05-16T13:31:19.871Z,15.30
2023-05-16T13:34:22.414Z,15.61
2023-05-16T13:37:25.775Z,15.89
2023-05-16T13:40:29.394Z,16.58
2023-05-16T13:43:31.974Z,18.06
2023-05-16T13:46:36.047Z,17.40
2023-05-16T13:49:38.994Z,16.62
2023-05-16T13:52:41.582Z,16.55
2023-05-16T13:55:45.043Z,16.19
2023-05-16T13:59:00.719Z,16.37
2023-05-16T14:02:07.924Z,16.52
2023-05-16T14:05:10.916Z,16.21
2023-05-16T14:08:14.383Z,15.67
2023-05-16T14:11:19.580Z,15.29
2023-05-16T14:14:22.111Z,15.85
2023-05-16T14:17:26.853Z,15.73
2023-05-16T14:20:29.378Z,15.06
2023-05-16T14:23:31.936Z,14.87
2023-05-16T14:26:34.507Z,14.79
2023-05-16T14:29:37.097Z,14.84
2023-05-16T14:32:40.991Z,15.23
2023-05-16T14:35:43.534Z,15.02
2023-05-16T14:38:46.066Z,15.15
2023-05-16T14:41:48.570Z,15.21
2023-05-16T14:44:51.290Z,16.58
2023-05-16T14:47:55.187Z,15.75
2023-05-16T14:51:00.889Z,15.59
2023-05-16T14:54:03.436Z,16.03
2023-05-16T14:57:07.350Z,16.89
2023-05-16T15:00:11.707Z,16.17
2023-05-16T15:03:17.747Z,15.56
2023-05-16T15:06:20.325Z,15.55
2023-05-16T15:09:22.847Z,15.76
2023-05-16T15:12:25.362Z,16.44
2023-05-16T15:15:28.545Z,17.33
2023-05-16T15:18:32.436Z,18.06
2023-05-16T15:21:35.118Z,17.65
2023-05-16T15:24:37.784Z,17.53
2023-05-16T15:27:40.551Z,17.92
2023-05-16T15:30:43.140Z,17.91
2023-05-16T15:33:48.572Z,17.77
2023-05-16T15:36:51.813Z,16.91
2023-05-16T15:39:54.317Z,16.11
2023-05-16T15:42:56.861Z,15.79
2023-05-16T15:45:59.450Z,15.91
2023-05-16T15:49:03.390Z,16.37
2023-05-16T15:52:06.501Z,16.97
2023-05-16T15:55:11.892Z,17.38
2023-05-16T15:58:14.439Z,17.56
2023-05-16T16:01:17.706Z,17.21
2023-05-16T16:04:23.380Z,17.19
2023-05-16T16:07:26.381Z,16.97
2023-05-16T16:10:28.901Z,16.54
2023-05-16T16:13:31.920Z,16.41
2023-05-16T16:16:34.628Z,16.63
2023-05-16T16:19:38.524Z,16.20
2023-05-16T16:22:41.003Z,16.25
2023-05-16T16:25:43.539Z,15.77
2023-05-16T16:28:46.033Z,15.92
2023-05-16T16:31:48.822Z,16.19
2023-05-16T16:34:52.788Z,16.14
2023-05-16T16:41:04.990Z,16.00
2023-05-16T16:44:07.520Z,16.14
2023-05-16T16:47:10.423Z,15.97
2023-05-16T16:50:14.312Z,15.97
2023-05-16T16:53:16.896Z,15.91
2023-05-16T16:56:19.676Z,15.87
2023-05-16T16:59:22.238Z,15.82
2023-05-16T17:02:24.928Z,15.96
2023-05-16T17:05:28.968Z,15.42
2023-05-16T17:08:31.774Z,15.52
2023-05-16T17:11:36.349Z,15.67
2023-05-16T17:14:38.884Z,15.89
2023-05-16T17:17:41.510Z,15.11
2023-05-16T17:20:45.399Z,15.02
2023-05-16T17:23:50.368Z,14.90
2023-05-16T17:26:55.810Z,14.58
2023-05-16T17:29:58.662Z,14.62
2023-05-16T17:33:01.251Z,14.68
2023-05-16T17:36:06.063Z,14.60
2023-05-16T17:39:10.492Z,14.51
2023-05-16T17:42:13.006Z,14.20
2023-05-16T17:45:16.398Z,14.24
2023-05-16T17:48:19.146Z,14.33
2023-05-16T17:51:23.075Z,14.31
2023-05-16T17:54:27.204Z,14.25
2023-05-16T17:57:29.704Z,14.00
2023-05-16T18:00:32.711Z,13.73
2023-05-16T18:03:35.283Z,13.93
2023-05-16T18:06:39.631Z,13.69
2023-05-16T18:09:42.133Z,13.30
2023-05-16T18:12:44.861Z,13.24
2023-05-16T18:15:47.744Z,13.02
2023-05-16T18:18:53.363Z,13.04
2023-05-16T18:21:58.475Z,12.82
2023-05-16T18:25:01.243Z,12.76
2023-05-16T18:28:04.644Z,12.54
2023-05-16T18:31:07.663Z,12.43
2023-05-16T18:34:10.645Z,12.38
2023-05-16T18:37:14.570Z,12.19
2023-05-16T18:40:17.977Z,12.03
2023-05-16T18:43:20.605Z,11.88
2023-05-16T18:46:23.208Z,11.76
2023-05-16T18:49:26.008Z,11.44
2023-05-16T18:52:29.863Z,11.23
2023-05-16T18:55:32.667Z,11.03
2023-05-16T18:58:35.157Z,10.88
2023-05-16T19:01:37.841Z,10.58
2023-05-16T19:04:40.560Z,10.34
2023-05-16T19:07:44.522Z,10.13
2023-05-16T19:10:47.133Z,9.99
2023-05-16T19:13:49.786Z,9.86
2023-05-16T19:16:52.439Z,9.70
2023-05-16T19:19:55.008Z,9.69
2023-05-16T19:22:58.885Z,9.77
2023-05-16T19:26:01.426Z,9.76
2023-05-16T19:29:03.967Z,9.75
2023-05-16T19:32:07.616Z,9.53
2023-05-16T19:35:10.871Z,9.39
2023-05-16T19:38:14.739Z,9.31
2023-05-16T19:41:17.970Z,9.43
2023-05-16T19:44:20.478Z,9.37
2023-05-16T19:47:23.007Z,9.17
2023-05-16T19:50:25.599Z,8.92
2023-05-16T19:53:29.582Z,8.92
2023-05-16T19:56:32.108Z,9.00
2023-05-16T19:59:34.723Z,8.88
2023-05-16T20:02:37.255Z,8.79
2023-05-16T20:05:39.798Z,8.78
2023-05-16T20:08:43.709Z,8.89
2023-05-16T20:11:46.309Z,8.65
2023-05-16T20:14:48.927Z,8.45
2023-05-16T20:17:51.477Z,8.26
2023-05-16T20:20:54.066Z,8.14
2023-05-16T20:23:57.916Z,8.11
2023-05-16T20:27:01.398Z,8.08
2023-05-16T20:30:06.442Z,8.03
2023-05-16T20:33:08.977Z,7.85
2023-05-16T20:36:11.533Z,7.71
2023-05-16T20:39:15.615Z,7.83
2023-05-16T20:42:18.111Z,7.68
2023-05-16T20:45:20.815Z,7.69
2023-05-16T20:48:23.389Z,7.67
2023-05-16T20:51:25.986Z,7.64
2023-05-16T20:54:29.857Z,7.56
2023-05-16T20:57:32.415Z,7.43
2023-05-16T21:00:35.119Z,7.35
2023-05-16T21:03:37.710Z,7.25
2023-05-16T21:18:48.621Z,6.78
2023-05-16T21:21:51.349Z,6.82
2023-05-16T21:24:53.930Z,6.95
2023-05-16T21:27:56.450Z,6.94
2023-05-16T21:30:58.968Z,6.82
2023-05-16T22:00:41.570Z,6.98
2023-05-16T22:03:44.364Z,6.99
2023-05-16T22:06:46.902Z,6.95
